createdAt,value
2018-06-25T00:01:20.322Z,4.03
2018-06-25T00:03:54.538Z,4.50
2018-06-25T00:06:28.794Z,4.53
2018-06-25T00:09:03.214Z,4.70
2018-06-25T00:11:37.666Z,4.90
2018-06-25T00:14:11.855Z,4.90
2018-06-25T00:16:46.142Z,4.80
2018-06-25T00:19:20.454Z,5.27
2018-06-25T00:21:54.885Z,5.83
2018-06-25T00:24:29.251Z,6.25
2018-06-25T00:27:03.489Z,5.37
2018-06-25T00:29:37.825Z,5.40
2018-06-25T00:32:12.110Z,5.63
2018-06-25T00:34:46.438Z,6.60
2018-06-25T00:37:20.694Z,5.57
2018-06-25T00:39:55.026Z,4.80
2018-06-25T00:42:29.206Z,5.13
2018-06-25T00:45:03.619Z,5.30
2018-06-25T00:47:37.875Z,6.03
2018-06-25T00:50:12.266Z,5.83
2018-06-25T00:52:46.466Z,6.10
2018-06-25T00:55:20.762Z,5.47
2018-06-25T00:57:55.107Z,5.03
2018-06-25T01:00:29.465Z,5.40
2018-06-25T01:03:03.806Z,5.90
2018-06-25T01:05:38.050Z,5.77
2018-06-25T01:08:12.335Z,6.60
2018-06-25T01:10:46.452Z,6.17
2018-06-25T01:13:20.706Z,6.13
2018-06-25T01:15:55.014Z,6.33
2018-06-25T01:18:29.320Z,5.97
2018-06-25T01:21:03.719Z,6.37
2018-06-25T01:23:37.987Z,5.93
2018-06-25T01:26:12.250Z,6.43
2018-06-25T01:28:46.438Z,5.60
2018-06-25T01:31:20.782Z,5.60
2018-06-25T01:33:55.468Z,6.10
2018-06-25T01:36:29.939Z,5.87
2018-06-25T01:39:07.090Z,6.23
2018-06-25T01:41:41.454Z,6.87
2018-06-25T01:44:15.498Z,7.43
2018-06-25T01:46:49.731Z,6.77
2018-06-25T01:49:24.051Z,7.13
2018-06-25T01:51:58.351Z,6.97
2018-06-25T01:54:32.645Z,6.97
2018-06-25T01:57:07.054Z,7.23
2018-06-25T01:59:41.302Z,6.90
2018-06-25T02:02:15.486Z,7.30
2018-06-25T02:04:49.813Z,6.77
2018-06-25T02:07:24.035Z,7.13
2018-06-25T02:09:58.310Z,6.53
2018-06-25T02:12:32.484Z,7.30
2018-06-25T02:15:07.085Z,7.67
2018-06-25T02:17:41.325Z,7.17
2018-06-25T02:20:15.642Z,7.60
2018-06-25T02:22:49.833Z,7.47
2018-06-25T02:25:24.257Z,7.77
2018-06-25T02:27:58.571Z,6.80
2018-06-25T02:30:32.871Z,6.87
2018-06-25T02:33:07.385Z,6.40
2018-06-25T02:35:41.590Z,6.70
2018-06-25T02:38:15.891Z,7.77
2018-06-25T02:40:50.373Z,6.67
2018-06-25T02:43:24.584Z,6.93
2018-06-25T02:45:58.781Z,7.40
2018-06-25T02:48:33.070Z,6.93
2018-06-25T02:51:07.224Z,7.07
2018-06-25T02:53:41.602Z,6.90
2018-06-25T02:56:15.886Z,7.30
2018-06-25T02:58:50.187Z,7.17
2018-06-25T03:01:24.511Z,7.80
2018-06-25T03:03:58.747Z,7.27
2018-06-25T03:06:33.007Z,6.50
2018-06-25T03:09:08.346Z,6.60
2018-06-25T03:11:42.487Z,7.37
2018-06-25T03:14:16.835Z,7.10
2018-06-25T03:16:51.259Z,7.23
2018-06-25T03:19:25.647Z,7.60
2018-06-25T03:21:59.831Z,8.23
2018-06-25T03:24:34.055Z,7.50
2018-06-25T03:27:08.338Z,7.40
2018-06-25T03:29:42.571Z,8.43
2018-06-25T03:32:16.917Z,7.50
2018-06-25T03:34:51.201Z,7.40
2018-06-25T03:37:25.669Z,7.63
2018-06-25T03:39:59.871Z,8.93
2018-06-25T03:42:34.138Z,8.00
2018-06-25T03:45:08.404Z,7.83
2018-06-25T03:47:42.795Z,7.43
2018-06-25T03:50:16.957Z,7.97
2018-06-25T03:52:51.230Z,8.47
2018-06-25T03:55:25.370Z,7.80
2018-06-25T03:57:59.777Z,8.10
2018-06-25T04:00:34.090Z,8.20
2018-06-25T04:03:08.348Z,8.17
2018-06-25T04:05:42.455Z,8.00
2018-06-25T04:08:16.816Z,10.17
2018-06-25T04:10:51.222Z,8.97
2018-06-25T04:13:25.495Z,8.50
2018-06-25T04:15:59.797Z,7.90
2018-06-25T04:18:33.934Z,8.00
2018-06-25T04:21:08.238Z,8.03
2018-06-25T04:23:42.501Z,7.80
2018-06-25T04:26:16.773Z,8.13
2018-06-25T04:28:51.182Z,8.40
2018-06-25T04:31:25.607Z,8.57
2018-06-25T04:34:00.045Z,9.13
2018-06-25T04:36:34.398Z,8.77
2018-06-25T04:39:09.915Z,8.37
2018-06-25T04:41:44.163Z,9.13
2018-06-25T04:44:18.503Z,9.67
2018-06-25T04:46:53.378Z,9.17
2018-06-25T04:49:27.563Z,9.07
2018-06-25T04:52:01.917Z,9.30
2018-06-25T04:54:36.158Z,9.30
2018-06-25T04:57:10.593Z,8.97
2018-06-25T04:59:45.029Z,10.87
2018-06-25T05:02:19.305Z,9.83
2018-06-25T05:04:53.691Z,9.10
2018-06-25T05:07:27.962Z,9.40
2018-06-25T05:10:02.210Z,9.17
2018-06-25T05:12:36.614Z,9.03
2018-06-25T05:15:10.926Z,8.50
2018-06-25T05:17:45.335Z,9.30
2018-06-25T05:20:19.687Z,9.50
2018-06-25T05:22:53.941Z,9.73
2018-06-25T05:25:28.236Z,9.33
2018-06-25T05:28:02.643Z,9.10
2018-06-25T05:30:36.982Z,9.40
2018-06-25T05:33:11.102Z,8.97
2018-06-25T05:35:45.572Z,10.00
2018-06-25T05:38:19.918Z,9.33
2018-06-25T05:40:54.244Z,10.23
2018-06-25T05:43:28.565Z,8.73
2018-06-25T05:46:02.882Z,10.03
2018-06-25T05:48:37.206Z,9.10
2018-06-25T05:51:11.450Z,9.77
2018-06-25T05:53:45.682Z,9.37
2018-06-25T05:56:20.040Z,9.13
2018-06-25T05:58:54.742Z,8.47
2018-06-25T06:01:29.090Z,9.40
2018-06-25T06:04:03.506Z,9.57
2018-06-25T06:06:37.777Z,9.13
2018-06-25T06:09:12.319Z,7.97
2018-06-25T06:11:46.715Z,9.00
2018-06-25T06:14:20.938Z,8.33
2018-06-25T06:16:55.366Z,8.50
2018-06-25T06:19:29.778Z,7.93
2018-06-25T06:22:04.026Z,7.03
2018-06-25T06:24:38.238Z,6.73
2018-06-25T06:27:12.495Z,7.00
2018-06-25T06:29:46.964Z,7.03
2018-06-25T06:32:21.465Z,6.23
2018-06-25T06:34:55.766Z,6.97
2018-06-25T06:37:30.056Z,6.67
2018-06-25T06:40:04.367Z,6.03
2018-06-25T06:42:38.785Z,6.13
2018-06-25T06:45:12.982Z,6.10
2018-06-25T06:47:47.281Z,5.77
2018-06-25T06:50:21.552Z,6.73
2018-06-25T06:52:55.738Z,5.87
2018-06-25T06:55:29.980Z,6.27
2018-06-25T06:58:04.154Z,7.20
2018-06-25T07:00:38.375Z,7.00
2018-06-25T07:03:12.669Z,6.90
2018-06-25T07:05:46.991Z,7.00
2018-06-25T07:08:21.314Z,6.80
2018-06-25T07:10:55.738Z,6.37
2018-06-25T07:13:30.016Z,6.50
2018-06-25T07:16:04.226Z,6.97
2018-06-25T07:18:38.382Z,7.00
2018-06-25T07:21:12.620Z,6.67
2018-06-25T07:23:46.810Z,6.83
2018-06-25T07:26:22.412Z,7.13
2018-06-25T07:28:57.046Z,6.93
2018-06-25T07:31:31.214Z,6.97
2018-06-25T07:34:05.408Z,6.60
2018-06-25T07:36:39.666Z,7.57
2018-06-25T07:39:13.985Z,7.47
2018-06-25T07:41:48.240Z,7.23
2018-06-25T07:44:22.486Z,7.13
2018-06-25T07:46:56.593Z,7.40
2018-06-25T07:49:31.050Z,7.20
2018-06-25T07:52:05.309Z,7.43
2018-06-25T07:54:39.718Z,6.97
2018-06-25T07:57:14.111Z,7.63
2018-06-25T07:59:48.350Z,16.07
2018-06-25T08:02:22.634Z,8.37
2018-06-25T08:04:56.957Z,7.03
2018-06-25T08:07:31.331Z,6.43
2018-06-25T08:10:05.449Z,6.43
2018-06-25T08:12:39.681Z,6.70
2018-06-25T08:15:13.878Z,6.83
2018-06-25T08:17:48.201Z,6.87
2018-06-25T08:20:22.619Z,7.27
2018-06-25T08:22:56.861Z,7.33
2018-06-25T08:25:31.090Z,7.20
2018-06-25T08:28:05.390Z,7.83
2018-06-25T08:30:39.700Z,7.07
2018-06-25T08:33:13.974Z,7.10
2018-06-25T08:35:48.282Z,7.17
2018-06-25T08:38:22.402Z,6.57
2018-06-25T08:40:56.718Z,5.87
2018-06-25T08:43:31.049Z,6.53
2018-06-25T08:46:05.215Z,5.53
2018-06-25T08:48:39.471Z,6.83
2018-06-25T08:51:13.693Z,7.33
2018-06-25T08:53:48.019Z,6.57
2018-06-25T08:56:22.435Z,7.23
2018-06-25T08:58:56.756Z,7.03
2018-06-25T09:01:31.065Z,7.77
2018-06-25T09:04:05.531Z,7.10
2018-06-25T09:06:39.712Z,7.67
2018-06-25T09:09:13.865Z,7.03
2018-06-25T09:11:48.182Z,7.60
2018-06-25T09:14:22.634Z,7.40
2018-06-25T09:16:57.113Z,7.30
2018-06-25T09:19:31.393Z,6.63
2018-06-25T09:22:05.887Z,7.67
2018-06-25T09:24:40.190Z,7.07
2018-06-25T09:27:14.494Z,6.57
2018-06-25T09:29:48.838Z,6.70
2018-06-25T09:32:23.091Z,6.73
2018-06-25T09:34:57.294Z,7.07
2018-06-25T09:37:31.531Z,5.23
2018-06-25T09:40:06.306Z,4.23
2018-06-25T09:42:40.697Z,4.50
2018-06-25T09:45:14.987Z,4.70
2018-06-25T09:47:49.259Z,4.93
2018-06-25T09:50:23.473Z,4.83
2018-06-25T09:52:57.839Z,5.87
2018-06-25T09:55:32.167Z,4.73
2018-06-25T09:58:06.594Z,4.90
2018-06-25T10:00:46.171Z,4.07
2018-06-25T10:03:20.442Z,4.97
2018-06-25T10:05:54.905Z,4.13
2018-06-25T10:08:29.099Z,4.50
2018-06-25T10:11:03.347Z,4.40
2018-06-25T10:13:37.653Z,4.13
2018-06-25T10:16:11.990Z,4.80
2018-06-25T10:18:46.242Z,4.97
2018-06-25T10:21:20.625Z,4.23
2018-06-25T10:23:54.980Z,4.10
2018-06-25T10:26:29.277Z,3.97
2018-06-25T10:29:03.655Z,3.87
2018-06-25T10:31:37.874Z,5.37
2018-06-25T10:34:12.247Z,4.70
2018-06-25T10:36:46.682Z,4.67
2018-06-25T10:39:20.975Z,4.57
2018-06-25T10:41:55.182Z,4.40
2018-06-25T10:44:29.465Z,4.40
2018-06-25T10:47:03.742Z,4.97
2018-06-25T10:49:38.205Z,3.67
2018-06-25T10:52:12.525Z,4.40
2018-06-25T10:54:46.838Z,4.90
2018-06-25T10:57:21.150Z,4.13
2018-06-25T10:59:55.698Z,4.07
2018-06-25T11:02:29.894Z,5.10
2018-06-25T11:05:04.122Z,4.87
2018-06-25T11:07:38.447Z,4.73
2018-06-25T11:10:12.870Z,4.67
2018-06-25T11:12:47.148Z,4.30
2018-06-25T11:15:21.453Z,3.87
2018-06-25T11:17:55.764Z,4.60
2018-06-25T11:20:30.166Z,4.63
2018-06-25T11:23:04.466Z,4.23
2018-06-25T11:25:38.744Z,4.40
2018-06-25T11:28:13.031Z,4.03
2018-06-25T11:30:47.238Z,4.60
2018-06-25T11:33:21.942Z,4.03
2018-06-25T11:35:56.283Z,4.73
2018-06-25T11:38:30.457Z,4.30
2018-06-25T11:41:04.730Z,3.93
2018-06-25T11:43:39.080Z,4.20
2018-06-25T11:46:13.373Z,4.10
2018-06-25T11:48:47.761Z,4.20
2018-06-25T11:51:22.026Z,4.13
2018-06-25T11:53:56.334Z,3.50
2018-06-25T11:56:30.615Z,3.90
2018-06-25T11:59:05.010Z,3.70
2018-06-25T12:01:39.314Z,3.90
2018-06-25T12:04:13.627Z,4.40
2018-06-25T12:06:47.953Z,4.50
2018-06-25T12:09:22.358Z,4.67
2018-06-25T12:11:56.744Z,4.67
2018-06-25T12:14:31.081Z,4.47
2018-06-25T12:17:05.294Z,4.13
2018-06-25T12:19:39.619Z,4.00
2018-06-25T12:22:13.755Z,4.40
2018-06-25T12:24:48.010Z,4.77
2018-06-25T12:27:22.306Z,3.90
2018-06-25T12:29:56.634Z,4.90
2018-06-25T12:32:31.015Z,4.33
2018-06-25T12:35:05.343Z,4.60
2018-06-25T12:37:39.602Z,4.70
2018-06-25T12:40:13.765Z,4.80
2018-06-25T12:42:48.042Z,4.17
2018-06-25T12:45:22.442Z,4.17
2018-06-25T12:47:56.689Z,4.47
2018-06-25T12:50:30.841Z,4.37
2018-06-25T12:53:05.249Z,4.40
2018-06-25T12:55:39.822Z,4.10
2018-06-25T12:58:14.022Z,4.50
2018-06-25T13:00:48.314Z,4.70
2018-06-25T13:03:22.655Z,4.07
2018-06-25T13:05:56.931Z,4.07
2018-06-25T13:08:31.222Z,4.30
2018-06-25T13:11:05.389Z,4.00
2018-06-25T13:13:39.694Z,3.93
2018-06-25T13:16:13.923Z,4.67
2018-06-25T13:18:48.249Z,3.83
2018-06-25T13:21:22.512Z,4.00
2018-06-25T13:23:56.840Z,3.93
2018-06-25T13:26:31.122Z,4.10
2018-06-25T13:29:05.438Z,4.57
2018-06-25T13:31:39.738Z,4.73
2018-06-25T13:34:14.027Z,4.63
2018-06-25T13:36:48.323Z,4.00
2018-06-25T13:39:22.750Z,4.83
2018-06-25T13:41:57.010Z,4.13
2018-06-25T13:44:31.274Z,3.80
2018-06-25T13:47:05.527Z,4.13
2018-06-25T13:49:39.862Z,3.87
2018-06-25T13:52:14.015Z,3.77
2018-06-25T13:54:48.335Z,4.00
2018-06-25T13:57:22.578Z,3.97
2018-06-25T13:59:56.887Z,4.37
2018-06-25T14:02:31.258Z,4.00
2018-06-25T14:05:05.626Z,3.53
2018-06-25T14:07:39.874Z,3.80
2018-06-25T14:10:14.299Z,4.30
2018-06-25T14:12:48.574Z,4.27
2018-06-25T14:15:22.758Z,4.30
2018-06-25T14:17:57.063Z,4.30
2018-06-25T14:20:31.317Z,4.23
2018-06-25T14:23:05.762Z,4.47
2018-06-25T14:25:45.513Z,3.80
2018-06-25T14:28:25.256Z,3.80
2018-06-25T14:31:05.233Z,3.83
2018-06-25T14:33:42.601Z,4.33
2018-06-25T14:36:16.760Z,4.47
2018-06-25T14:38:51.106Z,4.00
2018-06-25T14:41:25.545Z,4.37
2018-06-25T14:43:59.926Z,4.10
2018-06-25T14:46:34.227Z,4.03
2018-06-25T14:49:08.501Z,3.43
2018-06-25T14:51:42.696Z,4.00
2018-06-25T14:54:16.990Z,4.27
2018-06-25T14:56:51.395Z,4.30
2018-06-25T14:59:25.690Z,4.13
2018-06-25T15:01:59.918Z,3.93
2018-06-25T15:04:34.180Z,4.53
2018-06-25T15:07:08.614Z,4.13
2018-06-25T15:09:42.887Z,4.07
2018-06-25T15:12:17.083Z,4.93
2018-06-25T15:14:51.481Z,4.30
2018-06-25T15:17:25.621Z,4.70
2018-06-25T15:19:59.967Z,5.17
2018-06-25T15:22:34.277Z,4.50
2018-06-25T15:25:08.501Z,4.13
2018-06-25T15:27:42.807Z,4.40
2018-06-25T15:30:17.056Z,4.53
2018-06-25T15:32:51.281Z,4.67
2018-06-25T15:35:25.527Z,4.23
2018-06-25T15:37:59.824Z,4.90
2018-06-25T15:40:34.111Z,4.80
2018-06-25T15:43:08.414Z,4.20
2018-06-25T15:45:42.701Z,3.90
2018-06-25T15:48:17.154Z,4.63
2018-06-25T15:50:51.447Z,4.67
2018-06-25T15:53:25.709Z,4.67
2018-06-25T15:55:59.978Z,5.17
2018-06-25T15:58:34.266Z,4.70
2018-06-25T16:01:08.574Z,4.37
2018-06-25T16:03:42.858Z,4.90
2018-06-25T16:06:17.041Z,4.67
2018-06-25T16:08:51.266Z,4.20
2018-06-25T16:11:25.602Z,4.77
2018-06-25T16:13:59.886Z,4.90
2018-06-25T16:16:34.304Z,4.67
2018-06-25T16:19:08.626Z,4.50
2018-06-25T16:21:43.027Z,4.90
2018-06-25T16:24:17.173Z,5.60
2018-06-25T16:26:51.462Z,4.30
2018-06-25T16:29:25.793Z,4.57
2018-06-25T16:31:59.848Z,4.40
2018-06-25T16:34:34.054Z,4.57
2018-06-25T16:37:08.355Z,4.53
2018-06-25T16:39:42.658Z,4.60
2018-06-25T16:42:17.066Z,4.70
2018-06-25T16:44:51.238Z,3.90
2018-06-25T16:47:25.548Z,4.27
2018-06-25T16:49:59.830Z,4.30
2018-06-25T16:52:34.157Z,4.27
2018-06-25T16:55:08.391Z,4.47
2018-06-25T16:57:42.659Z,4.17
2018-06-25T17:00:16.933Z,4.07
2018-06-25T17:02:51.241Z,3.83
2018-06-25T17:05:25.651Z,4.27
2018-06-25T17:07:59.941Z,4.23
2018-06-25T17:10:34.246Z,4.30
2018-06-25T17:13:08.450Z,4.07
2018-06-25T17:15:42.710Z,4.70
2018-06-25T17:18:16.962Z,4.70
2018-06-25T17:20:51.110Z,4.03
2018-06-25T17:23:25.407Z,5.03
2018-06-25T17:26:00.150Z,4.43
2018-06-25T17:28:34.494Z,4.73
2018-06-25T17:31:08.998Z,4.73
2018-06-25T17:33:43.563Z,4.87
2018-06-25T17:36:17.922Z,5.03
2018-06-25T17:38:52.158Z,5.33
2018-06-25T17:41:26.422Z,4.60
2018-06-25T17:44:00.787Z,5.10
2018-06-25T17:46:35.030Z,5.53
2018-06-25T17:49:09.339Z,4.40
2018-06-25T17:51:43.775Z,4.87
2018-06-25T17:54:18.090Z,5.40
2018-06-25T17:56:52.530Z,4.97
2018-06-25T17:59:26.964Z,4.60
2018-06-25T18:02:01.030Z,5.20
2018-06-25T18:04:35.346Z,5.40
2018-06-25T18:07:09.682Z,5.20
2018-06-25T18:09:43.906Z,4.80
2018-06-25T18:12:18.490Z,5.00
2018-06-25T18:14:52.783Z,4.83
2018-06-25T18:17:27.086Z,4.73
2018-06-25T18:20:01.514Z,5.07
2018-06-25T18:22:35.805Z,5.43
2018-06-25T18:25:10.154Z,4.93
2018-06-25T18:27:44.377Z,5.70
2018-06-25T18:30:18.636Z,5.93
2018-06-25T18:32:52.850Z,4.90
2018-06-25T18:35:27.246Z,5.47
2018-06-25T18:38:01.603Z,4.97
2018-06-25T18:40:35.881Z,5.27
2018-06-25T18:43:10.167Z,5.50
2018-06-25T18:45:44.425Z,5.57
2018-06-25T18:48:18.730Z,5.70
2018-06-25T18:50:52.966Z,5.47
2018-06-25T18:53:27.382Z,5.83
2018-06-25T18:56:01.632Z,5.23
2018-06-25T18:58:35.910Z,5.53
2018-06-25T19:01:10.144Z,5.67
2018-06-25T19:03:44.446Z,4.90
2018-06-25T19:06:18.647Z,5.67
2018-06-25T19:08:53.050Z,5.47
2018-06-25T19:11:27.187Z,5.23
2018-06-25T19:14:01.453Z,5.57
2018-06-25T19:16:35.730Z,5.50
2018-06-25T19:19:10.116Z,5.30
2018-06-25T19:21:44.528Z,4.97
2018-06-25T19:24:18.731Z,5.53
2018-06-25T19:26:53.086Z,5.33
2018-06-25T19:29:27.506Z,5.17
2018-06-25T19:32:01.712Z,5.07
2018-06-25T19:34:35.857Z,4.63
2018-06-25T19:37:10.469Z,5.80
2018-06-25T19:39:44.938Z,4.93
2018-06-25T19:42:19.094Z,4.93
2018-06-25T19:44:53.438Z,5.27
2018-06-25T19:47:27.815Z,5.03
2018-06-25T19:50:02.090Z,5.57
2018-06-25T19:52:36.488Z,5.20
2018-06-25T19:55:10.910Z,5.50
2018-06-25T19:57:45.042Z,5.37
2018-06-25T20:00:19.282Z,5.30
2018-06-25T20:02:53.627Z,5.53
2018-06-25T20:05:27.962Z,5.33
2018-06-25T20:08:02.263Z,5.50
2018-06-25T20:10:36.595Z,6.37
2018-06-25T20:13:10.974Z,6.10
2018-06-25T20:15:45.360Z,5.67
2018-06-25T20:18:19.743Z,5.67
2018-06-25T20:20:54.065Z,6.70
2018-06-25T20:23:28.366Z,6.77
2018-06-25T20:26:02.552Z,6.47
2018-06-25T20:28:36.770Z,6.70
2018-06-25T20:31:11.046Z,6.33
2018-06-25T20:33:45.455Z,5.80
2018-06-25T20:36:19.789Z,7.50
2018-06-25T20:38:54.011Z,6.43
2018-06-25T20:41:28.206Z,6.93
2018-06-25T20:44:02.553Z,6.67
2018-06-25T20:46:36.842Z,6.83
2018-06-25T20:49:11.199Z,7.03
2018-06-25T20:51:45.903Z,8.07
2018-06-25T20:54:20.234Z,7.80
2018-06-25T20:56:54.603Z,7.33
2018-06-25T20:59:28.809Z,7.83
2018-06-25T21:02:03.125Z,8.43
2018-06-25T21:04:37.449Z,8.80
2018-06-25T21:07:11.711Z,8.13
2018-06-25T21:09:46.019Z,8.63
2018-06-25T21:12:20.334Z,8.17
2018-06-25T21:14:54.605Z,8.07
2018-06-25T21:17:28.854Z,7.87
2018-06-25T21:20:03.218Z,8.10
2018-06-25T21:22:38.195Z,7.30
2018-06-25T21:25:12.351Z,7.70
2018-06-25T21:27:46.611Z,7.33
2018-06-25T21:30:21.070Z,7.40
2018-06-25T21:32:55.457Z,8.03
2018-06-25T21:35:29.834Z,8.03
2018-06-25T21:38:04.094Z,7.20
2018-06-25T21:40:38.406Z,8.37
2018-06-25T21:43:12.696Z,8.20
2018-06-25T21:45:47.012Z,7.67
2018-06-25T21:48:21.332Z,8.23
2018-06-25T21:50:55.710Z,7.90
2018-06-25T21:53:29.969Z,7.60
2018-06-25T21:56:04.403Z,7.07
2018-06-25T21:58:38.667Z,7.07
2018-06-25T22:01:12.974Z,6.37
2018-06-25T22:03:47.222Z,6.50
2018-06-25T22:06:21.581Z,7.40
2018-06-25T22:08:55.959Z,7.73
2018-06-25T22:11:30.258Z,7.87
2018-06-25T22:14:04.582Z,7.07
2018-06-25T22:16:38.899Z,7.70
2018-06-25T22:19:13.058Z,6.90
2018-06-25T22:21:47.374Z,6.90
2018-06-25T22:24:21.517Z,7.20
2018-06-25T22:26:55.860Z,7.40
2018-06-25T22:29:30.087Z,6.70
2018-06-25T22:32:04.346Z,7.07
2018-06-25T22:34:38.627Z,7.43
2018-06-25T22:37:12.829Z,7.73
2018-06-25T22:39:47.022Z,6.30
2018-06-25T22:42:21.357Z,6.83
2018-06-25T22:44:55.759Z,7.20
2018-06-25T22:47:30.058Z,7.20
2018-06-25T22:50:04.712Z,7.17
2018-06-25T22:52:38.999Z,6.80
2018-06-25T22:55:13.231Z,7.37
2018-06-25T22:57:47.442Z,7.50
2018-06-25T23:00:21.562Z,7.27
2018-06-25T23:02:55.755Z,8.23
2018-06-25T23:05:30.018Z,7.30
2018-06-25T23:08:04.170Z,7.70
2018-06-25T23:10:38.398Z,7.13
2018-06-25T23:13:12.827Z,7.87
2018-06-25T23:15:47.087Z,7.83
2018-06-25T23:18:21.369Z,7.67
2018-06-25T23:20:55.658Z,7.20
2018-06-25T23:23:30.019Z,7.43
2018-06-25T23:26:04.273Z,7.27
2018-06-25T23:28:38.671Z,7.93
2018-06-25T23:31:12.979Z,7.83
2018-06-25T23:33:47.162Z,8.00
2018-06-25T23:36:21.563Z,8.07
2018-06-25T23:38:55.785Z,8.37
2018-06-25T23:41:30.188Z,8.67
2018-06-25T23:44:04.513Z,7.90
2018-06-25T23:46:38.768Z,7.93
2018-06-25T23:49:13.187Z,8.67
2018-06-25T23:51:47.497Z,7.80
2018-06-25T23:54:21.822Z,7.27
2018-06-25T23:56:56.027Z,7.77
2018-06-25T23:59:30.325Z,6.77
